首页
METAR-TAF:

METAR-TAF

机场 :

德累斯顿机场

德累斯顿, 德国

纬度: 51-08N, 经度: 013-45E, 海拔: 230米

当前天气观测

该预报发布于14分钟前的04:20 UTC
风速17节,风向西转西北,在西北转西北之间变化
温度 4°C
湿度 87%
气压 1014 hPa
能见度10公里或以上
散云层高于1600英尺
多云层高于2300英尺

METAR: EDDC 210420Z 30017KT 260V330 9999 SCT016 BKN023 04/02 Q1014

时间: 05:34 (04:34 UTC)

预报

该预报发布于5小时和34分钟前的23:00 UTC
预报有效从21日的 00点(UTC)到 21日的 24点(UTC)
风速15节,风向南转西南,有时为25节阵风
能见度10公里或以上
多云层高于2500英尺
成为
从 21日的 01点(UTC)到 21日的 03点(UTC)
风速20节,风向西,有时为30节阵风
短暂存在
从 21日的 01点(UTC)到 21日的 05点(UTC)
风速30节,风向西转西北,有时为40节阵风
几率 30% :
短暂存在
从 21日的 01点(UTC)到 21日的 06点(UTC)
能見度: 3500
多云层高于1400英尺, 积雨云.
阵雨, 小冰雹或雪球
成为
从 21日的 13点(UTC)到 21日的 16点(UTC)
风速15节,风向西转西南,有时为25节阵风
成为
从 21日的 16点(UTC)到 21日的 19点(UTC)
风速12节,风向西转西南

TAF: EDDC 202300Z 2100/2124 21015G25KT 9999 BKN025 BECMG 2101/2103 27020G30KT TEMPO 2101/2105 29030G40KT RA PROB30 TEMPO 2101/2106 3500 SHRAGS BKN014CB BECMG 2113/2116 25015G25KT BECMG 2116/2119 24012KT

超过4000个机场的气象观测和天气预报(METAR&TAF报告)。

可查询的气象台以黄色和红色小点在地图上表示。

将鼠标移到小点上方,可查看气象台名称。

然后点击查看天气观测和预报。

如需切换地图:点击带黑十字的绿色按钮放大地图;点击带横线的绿色按钮缩小地图;或者点击绿色箭头查看邻近地区的地图。


METAR-TAF: